Time;durP1;ratioP1;P1;durP2;ratioP2;P2;SDS_P1;SDS_P2;PMS_P1;PMS_P2;Temp;Humidity;BMP_temperature;BMP_pressure;BME280_temperature;BME280_humidity;BME280_pressure;Samples;Min_cycle;Max_cycle;Signal;HPM_P1;HPM_P2
2022/03/07 00:02:13;;;;;;;10.82;6.10;;;;;;;-0.36;63.68;100399.81;1713184;83;21092;-77
2022/03/07 00:04:41;;;;;;;11.05;6.08;;;;;;;-0.35;63.65;100401.50;1713073;82;21479;-77
2022/03/07 00:07:10;;;;;;;8.95;5.22;;;;;;;-0.36;63.65;100398.52;1712998;82;20990;-77
2022/03/07 00:09:37;;;;;;;9.00;5.00;;;;;;;-0.35;63.63;100397.61;1713181;82;20958;-77
2022/03/07 00:12:04;;;;;;;6.20;3.87;;;;;;;-0.35;63.66;100392.42;1713014;82;21520;-78
2022/03/07 00:14:32;;;;;;;7.08;4.58;;;;;;;-0.36;63.50;100383.78;1678034;85;21071;-77
2022/03/07 00:16:59;;;;;;;6.60;3.92;;;;;;;-0.36;63.41;100381.20;1678265;85;21867;-77
2022/03/07 00:19:29;;;;;;;7.25;4.15;;;;;;;-0.33;63.39;100378.48;1678313;85;20961;-79
2022/03/07 00:21:56;;;;;;;6.62;3.98;;;;;;;-0.30;63.34;100373.17;1678423;85;21064;-78
2022/03/07 00:24:25;;;;;;;5.87;3.70;;;;;;;-0.27;63.37;100370.95;1678292;85;21030;-78
2022/03/07 00:26:52;;;;;;;6.03;3.67;;;;;;;-0.24;63.28;100358.30;1678430;85;21048;-79
2022/03/07 00:29:21;;;;;;;5.95;3.65;;;;;;;-0.21;63.18;100360.33;1678377;85;20941;-78
2022/03/07 00:31:51;;;;;;;5.58;3.90;;;;;;;-0.21;63.10;100349.09;1715656;82;20950;-77
2022/03/07 00:34:18;;;;;;;7.22;3.80;;;;;;;-0.19;63.16;100343.40;1716449;83;20958;-78
2022/03/07 00:36:45;;;;;;;6.55;4.05;;;;;;;-0.18;63.08;100343.82;1715192;82;20990;-78
2022/03/07 00:39:13;;;;;;;5.30;4.00;;;;;;;-0.17;63.04;100345.06;1639599;85;21051;-78
2022/03/07 00:41:40;;;;;;;8.10;4.40;;;;;;;-0.17;62.89;100332.53;1686635;85;22010;-77
2022/03/07 00:44:07;;;;;;;6.05;4.22;;;;;;;-0.18;62.85;100334.28;1703141;83;20942;-77
2022/03/07 00:46:36;;;;;;;6.65;4.25;;;;;;;-0.18;62.79;100336.88;1722009;81;20977;-78
2022/03/07 00:49:04;;;;;;;6.75;4.20;;;;;;;-0.18;62.86;100336.03;1721850;81;21021;-78
2022/03/07 00:51:33;;;;;;;6.17;4.15;;;;;;;-0.19;62.88;100335.19;1687220;82;21020;-79
2022/03/07 00:54:00;;;;;;;5.85;4.12;;;;;;;-0.19;62.80;100330.42;1715038;82;21910;-79
2022/03/07 00:56:27;;;;;;;6.62;4.80;;;;;;;-0.22;62.82;100318.41;1714881;82;21002;-79
2022/03/07 00:58:54;;;;;;;8.98;5.10;;;;;;;-0.24;62.90;100323.27;1681040;85;20990;-78
2022/03/07 01:01:22;;;;;;;8.15;5.10;;;;;;;-0.25;63.03;100318.98;1681346;85;20949;-78
2022/03/07 01:03:52;;;;;;;8.13;4.95;;;;;;;-0.26;63.10;100318.13;1681286;85;21073;-78
2022/03/07 01:06:20;;;;;;;7.65;5.03;;;;;;;-0.28;63.25;100312.61;1679556;84;21919;-79
2022/03/07 01:08:47;;;;;;;8.50;4.97;;;;;;;-0.31;63.35;100314.39;1678547;84;20961;-79
2022/03/07 01:11:14;;;;;;;8.90;4.92;;;;;;;-0.30;63.41;100312.64;1678530;85;21057;-78
2022/03/07 01:13:42;;;;;;;8.35;4.80;;;;;;;-0.33;63.48;100309.71;1678587;85;20961;-78
2022/03/07 01:16:09;;;;;;;7.42;4.60;;;;;;;-0.33;63.55;100307.56;1678564;85;20973;-78
2022/03/07 01:18:36;;;;;;;6.30;4.30;;;;;;;-0.34;63.69;100302.83;1678620;84;22015;-79
2022/03/07 01:21:04;;;;;;;8.20;4.60;;;;;;;-0.35;63.81;100303.73;1678484;85;21013;-79
2022/03/07 01:23:31;;;;;;;9.38;5.40;;;;;;;-0.35;63.87;100301.59;1678799;85;20965;-79
2022/03/07 01:25:58;;;;;;;9.80;5.12;;;;;;;-0.36;63.93;100300.75;1678536;85;20965;-78
2022/03/07 01:28:25;;;;;;;8.13;4.90;;;;;;;-0.35;64.00;100292.51;1678602;85;21005;-78
2022/03/07 01:30:52;;;;;;;8.80;5.25;;;;;;;-0.35;64.05;100290.76;1678597;85;21940;-78
2022/03/07 01:33:20;;;;;;;8.83;5.20;;;;;;;-0.36;64.09;100286.92;1678893;84;20970;-79
2022/03/07 01:35:48;;;;;;;9.48;4.95;;;;;;;-0.35;64.17;100293.36;1678793;85;20968;-78
2022/03/07 01:38:15;;;;;;;8.60;5.30;;;;;;;-0.36;64.26;100288.22;1678104;84;20992;-77
2022/03/07 01:40:44;;;;;;;10.03;5.33;;;;;;;-0.35;64.35;100282.13;1678300;85;20965;-78
2022/03/07 01:43:11;;;;;;;8.98;4.85;;;;;;;-0.35;64.45;100278.23;1713076;83;22061;-78
2022/03/07 01:45:41;;;;;;;9.45;5.45;;;;;;;-0.35;64.43;100276.94;1676376;85;20989;-79
2022/03/07 01:48:09;;;;;;;8.55;5.20;;;;;;;-0.39;64.48;100276.18;1676434;85;21055;-78
2022/03/07 01:50:36;;;;;;;10.15;5.60;;;;;;;-0.42;64.58;100272.86;1714693;83;20993;-79
2022/03/07 01:53:04;;;;;;;9.58;5.62;;;;;;;-0.44;64.68;100269.03;1713521;82;21029;-78
2022/03/07 01:55:32;;;;;;;9.10;5.47;;;;;;;-0.43;64.77;100264.69;1679249;85;22551;-78
2022/03/07 01:58:02;;;;;;;8.65;5.55;;;;;;;-0.44;64.72;100265.59;1678200;84;20997;-78
2022/03/07 02:00:31;;;;;;;8.88;5.75;;;;;;;-0.45;64.75;100266.05;1678917;85;21447;-77
2022/03/07 02:02:58;;;;;;;7.45;5.08;;;;;;;-0.45;64.81;100263.90;1678609;85;20968;-77
2022/03/07 02:05:30;;;;;;;7.95;5.50;;;;;;;-0.44;64.82;100264.30;1712520;83;20954;-77
2022/03/07 02:08:07;;;;;;;7.97;5.37;;;;;;;-0.48;64.77;100253.61;1713307;83;22284;-77
2022/03/07 02:10:36;;;;;;;7.28;5.20;;;;;;;-0.51;64.86;100255.88;1681294;83;21021;-78
2022/03/07 02:13:16;;;;;;;7.12;4.33;;;;;;;-0.50;64.91;100251.08;1713190;83;21057;-78
2022/03/07 02:15:55;;;;;;;8.28;5.08;;;;;;;-0.48;64.97;100253.19;1711831;83;21002;-78
2022/03/07 02:18:23;;;;;;;6.15;4.47;;;;;;;-0.49;64.89;100251.47;1678287;84;21653;-77
2022/03/07 02:20:55;;;;;;;7.87;4.25;;;;;;;-0.49;64.84;100258.41;1677972;85;22325;-78
2022/03/07 02:23:22;;;;;;;7.20;4.15;;;;;;;-0.49;64.73;100255.81;1713233;83;20946;-78
2022/03/07 02:25:49;;;;;;;7.62;4.62;;;;;;;-0.50;64.51;100254.97;1711465;83;21365;-77
2022/03/07 02:28:16;;;;;;;5.95;4.42;;;;;;;-0.51;64.09;100255.88;1700908;83;20998;-77
2022/03/07 02:30:43;;;;;;;6.92;4.42;;;;;;;-0.52;63.84;100257.23;1712720;83;21072;-78
2022/03/07 02:33:13;;;;;;;6.58;4.22;;;;;;;-0.53;63.66;100252.95;1676113;85;21942;-78
2022/03/07 02:35:40;;;;;;;12.25;5.97;;;;;;;-0.53;63.48;100247.76;1712481;83;21369;-78
2022/03/07 02:38:16;;;;;;;11.88;6.40;;;;;;;-0.54;63.41;100250.80;1678211;84;21043;-78
2022/03/07 02:40:46;;;;;;;8.90;5.22;;;;;;;-0.53;63.20;100252.50;1678215;85;21040;-77
2022/03/07 02:43:14;;;;;;;7.85;4.70;;;;;;;-0.52;63.04;100252.05;1678287;85;21012;-77
2022/03/07 02:45:43;;;;;;;8.13;4.72;;;;;;;-0.53;62.88;100252.95;1678226;85;21943;-77
2022/03/07 02:48:11;;;;;;;8.83;5.70;;;;;;;-0.52;62.73;100248.16;1712763;83;20909;-79
2022/03/07 02:50:37;;;;;;;10.82;5.72;;;;;;;-0.54;62.61;100243.02;1713234;82;21017;-78
2022/03/07 02:53:05;;;;;;;6.65;4.00;;;;;;;-0.52;62.59;100241.67;1712999;82;21009;-78
2022/03/07 02:55:33;;;;;;;5.37;3.30;;;;;;;-0.52;62.47;100232.59;1713052;82;21044;-77
2022/03/07 02:58:00;;;;;;;4.28;3.12;;;;;;;-0.52;62.38;100233.88;1712964;83;21920;-77
2022/03/07 03:00:28;;;;;;;5.17;3.55;;;;;;;-0.56;62.37;100226.67;1712939;83;20961;-77
2022/03/07 03:02:56;;;;;;;5.58;3.70;;;;;;;-0.56;62.41;100225.83;1712919;82;20989;-78
2022/03/07 03:05:23;;;;;;;4.62;3.20;;;;;;;-0.59;62.52;100228.91;1712948;82;21048;-77
2022/03/07 03:07:51;;;;;;;7.60;3.98;;;;;;;-0.57;62.52;100225.44;1712995;82;21006;-78
2022/03/07 03:10:19;;;;;;;8.05;4.05;;;;;;;-0.57;62.54;100221.55;1678189;84;21914;-78
2022/03/07 03:12:47;;;;;;;6.92;3.98;;;;;;;-0.58;62.57;100214.19;1712909;82;20985;-78
2022/03/07 03:15:15;;;;;;;7.83;4.30;;;;;;;-0.58;62.62;100218.08;1713293;82;21459;-78
2022/03/07 03:17:42;;;;;;;6.35;4.12;;;;;;;-0.60;62.66;100215.55;1712902;82;20986;-78
2022/03/07 03:20:11;;;;;;;8.85;4.95;;;;;;;-0.63;62.76;100211.77;1678306;85;20957;-78
2022/03/07 03:22:39;;;;;;;11.33;5.50;;;;;;;-0.65;62.85;100213.58;1713231;83;21860;-78
2022/03/07 03:25:08;;;;;;;9.88;5.35;;;;;;;-0.66;62.96;100208.45;1713055;82;21014;-77
2022/03/07 03:27:35;;;;;;;8.83;5.37;;;;;;;-0.66;63.06;100210.59;1713093;83;21018;-78
2022/03/07 03:30:06;;;;;;;8.18;4.72;;;;;;;-0.65;63.15;100205.80;1713152;82;21088;-77
2022/03/07 03:32:33;;;;;;;9.30;4.72;;;;;;;-0.66;63.24;100211.89;1713407;82;21044;-77
2022/03/07 03:35:00;;;;;;;8.28;4.78;;;;;;;-0.68;63.39;100208.94;1713164;82;22099;-77
2022/03/07 03:37:27;;;;;;;5.85;3.72;;;;;;;-0.72;63.61;100203.02;1713017;82;20990;-77
2022/03/07 03:39:54;;;;;;;6.08;3.70;;;;;;;-0.78;63.79;100201.09;1713148;82;20993;-78
2022/03/07 03:42:22;;;;;;;5.35;3.10;;;;;;;-0.82;63.84;100201.66;1712995;83;20970;-78
2022/03/07 03:44:49;;;;;;;4.85;3.08;;;;;;;-0.83;64.19;100201.27;1713165;82;21009;-78
2022/03/07 03:47:16;;;;;;;6.55;3.37;;;;;;;-0.85;64.49;100197.89;1713135;82;22357;-77
2022/03/07 03:49:43;;;;;;;5.12;3.37;;;;;;;-0.90;64.58;100196.73;1713046;83;21041;-78
2022/03/07 03:52:11;;;;;;;5.65;3.52;;;;;;;-0.92;64.66;100188.63;1713436;82;21010;-77
2022/03/07 03:54:38;;;;;;;5.75;3.08;;;;;;;-0.95;64.64;100197.37;1713080;83;21630;-77
2022/03/07 03:57:05;;;;;;;5.22;2.90;;;;;;;-0.95;64.70;100191.34;1713342;82;21018;-78
2022/03/07 03:59:33;;;;;;;5.20;3.15;;;;;;;-0.94;64.72;100182.66;1713095;82;22361;-77
2022/03/07 04:02:01;;;;;;;5.25;3.27;;;;;;;-0.94;64.70;100178.31;1713139;82;20934;-79
2022/03/07 04:04:28;;;;;;;4.35;2.80;;;;;;;-0.92;64.76;100178.26;1713070;83;21424;-78
2022/03/07 04:06:56;;;;;;;5.92;3.77;;;;;;;-0.91;64.75;100175.61;1713087;83;21288;-79
2022/03/07 04:09:23;;;;;;;5.78;3.30;;;;;;;-0.92;64.71;100172.62;1713098;82;21579;-80
2022/03/07 04:11:50;;;;;;;8.38;3.50;;;;;;;-0.93;64.68;100170.93;1713055;82;21934;-79
2022/03/07 04:14:17;;;;;;;5.55;3.50;;;;;;;-0.93;64.71;100170.93;1713062;82;21420;-79
2022/03/07 04:16:45;;;;;;;5.87;3.70;;;;;;;-0.91;64.74;100166.98;1713050;83;21428;-78
2022/03/07 04:19:14;;;;;;;6.37;3.67;;;;;;;-0.89;64.71;100167.31;1712952;82;21103;-79
2022/03/07 04:21:41;;;;;;;5.75;3.98;;;;;;;-0.84;64.71;100167.62;1678613;85;20965;-79
2022/03/07 04:24:09;;;;;;;5.08;3.47;;;;;;;-0.83;64.61;100162.37;1678147;85;21938;-79
2022/03/07 04:26:37;;;;;;;5.80;3.42;;;;;;;-0.83;64.63;100161.08;1678410;84;21384;-79
2022/03/07 04:29:10;;;;;;;4.70;3.30;;;;;;;-0.83;64.69;100148.56;1678644;85;21076;-78
2022/03/07 04:31:39;;;;;;;4.78;3.30;;;;;;;-0.84;64.64;100150.31;1678220;85;20965;-78
2022/03/07 04:34:09;;;;;;;4.72;3.60;;;;;;;-0.83;64.64;100146.81;1713795;83;21065;-78
2022/03/07 04:36:37;;;;;;;6.65;4.50;;;;;;;-0.84;64.63;100147.72;1678290;84;22012;-78
2022/03/07 04:39:04;;;;;;;7.35;5.03;;;;;;;-0.83;64.62;100142.08;1676612;84;21555;-78
2022/03/07 04:41:33;;;;;;;7.25;4.47;;;;;;;-0.83;64.60;100139.49;1676119;84;20969;-78
2022/03/07 04:44:00;;;;;;;5.83;3.90;;;;;;;-0.85;64.67;100139.55;1712116;83;20958;-78
2022/03/07 04:46:27;;;;;;;7.58;4.45;;;;;;;-0.84;64.72;100137.35;1712499;83;21017;-78
2022/03/07 04:48:54;;;;;;;8.48;4.35;;;;;;;-0.82;64.69;100135.54;1677216;85;21951;-78
2022/03/07 04:51:22;;;;;;;10.05;5.83;;;;;;;-0.81;64.71;100132.04;1678467;85;21412;-79
2022/03/07 04:53:49;;;;;;;11.10;6.53;;;;;;;-0.81;64.67;100137.68;1678609;85;21001;-78
2022/03/07 04:56:17;;;;;;;11.43;6.40;;;;;;;-0.81;64.59;100135.93;1703366;83;21236;-79
2022/03/07 04:58:44;;;;;;;7.92;4.55;;;;;;;-0.79;64.61;100137.16;1713173;82;21022;-78
2022/03/07 05:01:14;;;;;;;7.62;4.60;;;;;;;-0.79;64.43;100136.72;1712720;83;22304;-78
2022/03/07 05:03:41;;;;;;;8.03;4.53;;;;;;;-0.82;64.22;100130.35;1678153;84;20969;-79
2022/03/07 05:06:11;;;;;;;7.33;3.98;;;;;;;-0.83;64.16;100131.26;1678164;85;21441;-78
2022/03/07 05:08:40;;;;;;;6.90;4.35;;;;;;;-0.81;64.21;100126.86;1678239;85;20965;-78
2022/03/07 05:11:07;;;;;;;7.08;4.53;;;;;;;-0.80;64.19;100128.55;1678555;84;21013;-79
2022/03/07 05:13:35;;;;;;;5.08;3.35;;;;;;;-0.77;64.14;100128.87;1679494;84;22496;-77
2022/03/07 05:16:03;;;;;;;6.62;4.10;;;;;;;-0.77;63.93;100124.56;1678176;85;21423;-79
2022/03/07 05:18:30;;;;;;;6.67;3.90;;;;;;;-0.78;63.78;100131.92;1711768;82;21084;-79
2022/03/07 05:20:58;;;;;;;6.70;3.60;;;;;;;-0.79;63.75;100125.05;1711335;83;21025;-79
2022/03/07 05:23:25;;;;;;;6.50;3.70;;;;;;;-0.79;63.48;100122.91;1711399;83;21392;-78
2022/03/07 05:25:52;;;;;;;7.37;4.20;;;;;;;-0.80;63.37;100122.06;1712075;83;21891;-78
2022/03/07 05:28:21;;;;;;;5.35;3.22;;;;;;;-0.80;63.39;100126.41;1712144;82;20954;-78
2022/03/07 05:30:48;;;;;;;5.05;3.10;;;;;;;-0.77;63.35;100127.58;1712614;83;20962;-79
2022/03/07 05:33:15;;;;;;;5.55;3.08;;;;;;;-0.75;63.30;100120.61;1711451;83;20962;-78
2022/03/07 05:35:43;;;;;;;4.87;3.20;;;;;;;-0.73;63.17;100116.20;1711403;83;21482;-79
2022/03/07 05:38:10;;;;;;;5.47;3.30;;;;;;;-0.70;63.17;100113.48;1677532;84;21800;-79
2022/03/07 05:40:37;;;;;;;5.00;3.37;;;;;;;-0.67;63.09;100109.50;1677784;85;20993;-78
2022/03/07 05:43:04;;;;;;;5.83;3.70;;;;;;;-0.66;63.01;100106.00;1678199;85;21008;-77
2022/03/07 05:45:32;;;;;;;5.87;3.67;;;;;;;-0.66;62.81;100105.55;1678241;85;20973;-78
2022/03/07 05:47:59;;;;;;;7.03;3.87;;;;;;;-0.66;62.72;100098.22;1678544;85;20954;-79
2022/03/07 05:50:26;;;;;;;5.58;3.47;;;;;;;-0.67;62.67;100101.27;1678517;85;21962;-79
2022/03/07 05:52:53;;;;;;;6.22;3.98;;;;;;;-0.66;62.64;100102.95;1678234;85;21571;-78
2022/03/07 05:55:21;;;;;;;6.22;3.95;;;;;;;-0.65;62.50;100105.09;1677880;84;20961;-77
2022/03/07 05:57:48;;;;;;;6.83;4.70;;;;;;;-0.64;62.58;100101.15;1662185;85;20961;-79
2022/03/07 06:00:19;;;;;;;9.23;4.67;;;;;;;-0.61;62.59;100101.02;1679962;85;20936;-78
2022/03/07 06:02:45;;;;;;;8.03;5.03;;;;;;;-0.56;62.46;100101.31;1679472;85;21940;-78
2022/03/07 06:05:12;;;;;;;5.87;3.98;;;;;;;-0.57;62.34;100093.14;1678713;85;20993;-78
2022/03/07 06:07:40;;;;;;;5.62;3.92;;;;;;;-0.54;62.34;100087.83;1678342;85;20973;-78
2022/03/07 06:10:08;;;;;;;5.22;3.70;;;;;;;-0.53;62.05;100086.92;1678365;85;21048;-77
2022/03/07 06:12:36;;;;;;;26.30;13.53;;;;;;;-0.52;61.78;100090.75;1679067;85;21032;-77
2022/03/07 06:15:06;;;;;;;8.00;5.15;;;;;;;-0.51;61.70;100089.00;1712824;82;21745;-77
2022/03/07 06:17:36;;;;;;;5.37;3.52;;;;;;;-0.49;61.53;100087.18;1711922;83;21044;-77
2022/03/07 06:20:06;;;;;;;4.83;3.10;;;;;;;-0.47;61.57;100086.70;1677386;85;21084;-77
2022/03/07 06:22:35;;;;;;;4.35;2.92;;;;;;;-0.44;61.50;100086.56;1678136;85;21539;-78
2022/03/07 06:25:02;;;;;;;4.03;2.90;;;;;;;-0.44;61.45;100083.97;1678520;84;21017;-79
2022/03/07 06:27:29;;;;;;;3.95;2.62;;;;;;;-0.43;61.31;100089.55;1677986;85;22823;-80
2022/03/07 06:29:56;;;;;;;5.42;3.70;;;;;;;-0.44;61.32;100088.70;1678301;85;21040;-79
2022/03/07 06:32:24;;;;;;;5.00;2.95;;;;;;;-0.43;61.35;100083.91;1678258;85;21048;-78
2022/03/07 06:34:51;;;;;;;5.78;3.35;;;;;;;-0.39;61.23;100082.87;1712650;82;20970;-76
2022/03/07 06:37:18;;;;;;;5.33;3.02;;;;;;;-0.38;60.97;100085.05;1712505;82;20954;-79
2022/03/07 06:39:45;;;;;;;4.12;3.05;;;;;;;-0.36;61.11;100082.77;1712773;83;22206;-78
2022/03/07 06:42:12;;;;;;;5.40;3.17;;;;;;;-0.33;61.09;100073.56;1710738;83;20953;-78
2022/03/07 06:44:40;;;;;;;6.05;3.33;;;;;;;-0.27;61.03;100075.53;1710949;83;20966;-78
2022/03/07 06:47:08;;;;;;;4.78;3.20;;;;;;;-0.24;61.03;100075.41;1678525;84;21461;-78
2022/03/07 06:49:35;;;;;;;4.92;2.98;;;;;;;-0.23;60.84;100072.74;1678824;85;21009;-78
2022/03/07 06:52:02;;;;;;;8.45;4.25;;;;;;;-0.20;61.02;100072.61;1678489;84;21927;-79
2022/03/07 06:54:29;;;;;;;7.72;4.65;;;;;;;-0.15;61.01;100069.84;1678480;85;21416;-79
2022/03/07 06:56:56;;;;;;;8.13;4.70;;;;;;;-0.08;60.81;100066.95;1678753;85;21008;-79
2022/03/07 06:59:23;;;;;;;9.18;4.67;;;;;;;-0.06;60.42;100063.83;1678394;85;21082;-79
2022/03/07 07:01:51;;;;;;;7.58;4.37;;;;;;;-0.08;60.54;100058.31;1678705;85;20965;-78
2022/03/07 07:04:19;;;;;;;7.20;4.10;;;;;;;-0.04;60.65;100063.30;1678436;85;22322;-78
2022/03/07 07:06:47;;;;;;;6.47;3.72;;;;;;;0.01;60.42;100055.80;1678352;85;20997;-78
2022/03/07 07:09:14;;;;;;;12.40;5.87;;;;;;;0.04;60.18;100055.66;1678744;85;21008;-78
2022/03/07 07:11:43;;;;;;;21.02;10.05;;;;;;;0.06;60.17;100048.65;1678529;85;21497;-78
2022/03/07 07:14:10;;;;;;;7.47;4.17;;;;;;;0.10;60.18;100047.63;1665649;86;20978;-79
2022/03/07 07:16:40;;;;;;;5.83;3.47;;;;;;;0.12;59.90;100044.52;1666177;85;21943;-79
2022/03/07 07:19:07;;;;;;;12.20;5.50;;;;;;;0.17;59.52;100050.34;1663822;85;21105;-80
2022/03/07 07:21:34;;;;;;;5.80;3.52;;;;;;;0.15;58.94;100045.67;1664136;85;21062;-80
2022/03/07 07:24:03;;;;;;;5.97;3.72;;;;;;;0.15;58.96;100043.91;1663858;86;21378;-79
2022/03/07 07:26:31;;;;;;;6.25;4.42;;;;;;;0.18;58.57;100040.34;1663851;86;21457;-78
2022/03/07 07:28:58;;;;;;;4.83;3.30;;;;;;;0.19;58.24;100035.53;1664110;85;21839;-79
2022/03/07 07:31:25;;;;;;;5.40;3.60;;;;;;;0.22;58.38;100034.13;1663794;85;21012;-78
2022/03/07 07:33:54;;;;;;;5.40;3.22;;;;;;;0.32;58.57;100033.28;1663959;85;21074;-78
2022/03/07 07:36:21;;;;;;;4.83;3.40;;;;;;;0.37;57.64;100038.64;1663901;85;21026;-78
2022/03/07 07:38:48;;;;;;;5.33;3.45;;;;;;;0.39;57.38;100032.95;1664347;85;21014;-77
2022/03/07 07:41:15;;;;;;;4.33;3.22;;;;;;;0.42;57.32;100034.57;1663879;86;21917;-77
2022/03/07 07:43:42;;;;;;;6.92;4.92;;;;;;;0.46;56.90;100029.16;1663761;86;21474;-77
2022/03/07 07:46:09;;;;;;;6.50;3.12;;;;;;;0.45;56.65;100031.83;1663846;85;21031;-79
2022/03/07 07:48:36;;;;;;;5.50;3.52;;;;;;;0.43;56.25;100022.80;1663850;85;23417;-79
2022/03/07 07:51:03;;;;;;;5.12;3.30;;;;;;;0.41;56.21;100014.24;1663808;85;21073;-78
2022/03/07 07:53:30;;;;;;;4.25;3.00;;;;;;;0.39;56.07;100012.17;1663874;85;21893;-79
2022/03/07 07:55:57;;;;;;;5.08;3.20;;;;;;;0.42;56.02;100009.89;1663886;86;21071;-79
2022/03/07 07:58:24;;;;;;;5.75;3.80;;;;;;;0.43;55.81;100008.52;1664120;86;21003;-77
2022/03/07 08:00:52;;;;;;;6.65;4.17;;;;;;;0.45;56.07;100008.45;1663828;85;20982;-79
2022/03/07 08:03:18;;;;;;;5.05;3.42;;;;;;;0.51;56.03;100012.93;1664200;85;21018;-78
2022/03/07 08:05:48;;;;;;;4.92;3.25;;;;;;;0.56;55.85;100016.15;1663886;86;22335;-78
2022/03/07 08:08:15;;;;;;;6.28;3.92;;;;;;;0.58;55.04;100009.61;1663896;85;21050;-78
2022/03/07 08:10:44;;;;;;;15.83;8.68;;;;;;;0.57;55.10;100004.00;1664021;85;21042;-78
2022/03/07 08:13:12;;;;;;;10.53;6.70;;;;;;;0.55;54.67;99998.88;1664008;86;20982;-78
2022/03/07 08:15:42;;;;;;;12.78;6.85;;;;;;;0.55;54.94;100008.43;1663950;86;21101;-78
2022/03/07 08:18:11;;;;;;;7.80;4.97;;;;;;;0.55;54.34;100001.48;1664071;85;20967;-80
2022/03/07 08:20:39;;;;;;;4.00;2.92;;;;;;;0.59;52.62;100001.36;1663982;86;20982;-79
2022/03/07 08:23:06;;;;;;;25.77;13.72;;;;;;;0.59;52.83;100000.91;1664203;85;21058;-79
2022/03/07 08:25:34;;;;;;;6.75;4.42;;;;;;;0.63;53.11;100000.30;1663905;85;21466;-77
2022/03/07 08:28:00;;;;;;;4.78;3.00;;;;;;;0.66;53.08;99996.25;1664188;85;20978;-78
2022/03/07 08:30:28;;;;;;;5.10;2.85;;;;;;;0.72;53.04;99994.69;1663972;86;22331;-78
2022/03/07 08:32:56;;;;;;;4.05;3.12;;;;;;;0.71;52.31;99989.11;1663917;86;21015;-77
2022/03/07 08:35:24;;;;;;;5.10;3.25;;;;;;;0.66;52.30;99985.86;1664292;86;21026;-78
2022/03/07 08:37:52;;;;;;;5.42;3.37;;;;;;;0.64;52.54;99987.23;1664188;85;21031;-79
2022/03/07 08:40:20;;;;;;;5.00;3.20;;;;;;;0.63;52.97;99980.34;1664314;85;20983;-79
2022/03/07 08:42:47;;;;;;;4.92;3.22;;;;;;;0.67;52.79;99981.89;1664065;86;21883;-79
2022/03/07 08:45:14;;;;;;;4.47;2.42;;;;;;;0.72;52.71;99986.89;1663956;86;21065;-79
2022/03/07 08:47:41;;;;;;;3.55;2.62;;;;;;;0.75;52.63;99979.79;1664198;85;20978;-79
2022/03/07 08:50:10;;;;;;;6.35;2.95;;;;;;;0.76;52.31;99983.23;1663955;86;20988;-79
2022/03/07 08:52:37;;;;;;;3.80;2.70;;;;;;;0.75;52.40;99983.69;1664243;85;21038;-79
2022/03/07 08:55:05;;;;;;;5.17;3.20;;;;;;;0.76;52.37;99984.07;1663917;85;21987;-79
2022/03/07 08:57:32;;;;;;;4.70;2.92;;;;;;;0.74;51.89;99982.00;1663883;85;21006;-79
2022/03/07 08:59:59;;;;;;;4.20;3.02;;;;;;;0.75;52.18;99985.45;1664205;86;20967;-79
2022/03/07 09:02:26;;;;;;;4.37;2.98;;;;;;;0.78;51.73;99982.27;1664063;85;21014;-79
2022/03/07 09:04:53;;;;;;;4.83;3.00;;;;;;;0.82;51.81;99970.80;1664201;85;21026;-78
2022/03/07 09:07:21;;;;;;;4.83;3.10;;;;;;;0.93;51.60;99974.66;1664122;86;21953;-79
2022/03/07 09:09:48;;;;;;;4.15;2.60;;;;;;;0.97;51.38;99969.27;1664067;85;21483;-79
2022/03/07 09:12:16;;;;;;;4.37;3.10;;;;;;;1.03;51.26;99964.22;1664203;85;21070;-79
2022/03/07 09:14:43;;;;;;;11.22;5.15;;;;;;;1.08;51.30;99972.21;1664178;85;20974;-79
2022/03/07 09:17:10;;;;;;;17.67;7.08;;;;;;;1.12;51.21;99969.84;1664158;85;20983;-79
2022/03/07 09:19:38;;;;;;;10.78;5.33;;;;;;;1.18;51.29;99973.08;1664078;85;21951;-78
2022/03/07 09:22:05;;;;;;;6.40;3.50;;;;;;;1.19;50.96;99972.16;1664077;85;21070;-79
2022/03/07 09:24:32;;;;;;;4.60;3.08;;;;;;;1.20;50.95;99964.73;1664215;85;20971;-78
2022/03/07 09:26:59;;;;;;;3.92;2.87;;;;;;;1.21;50.20;99962.06;1664155;85;21018;-78
2022/03/07 09:29:26;;;;;;;6.20;3.20;;;;;;;1.20;50.19;99956.94;1664158;85;21086;-77
2022/03/07 09:31:53;;;;;;;6.03;4.40;;;;;;;1.24;50.64;99958.00;1664275;86;21937;-78
2022/03/07 09:34:21;;;;;;;5.10;3.45;;;;;;;1.32;50.64;99962.84;1664173;85;20962;-77
2022/03/07 09:36:48;;;;;;;4.53;3.15;;;;;;;1.31;50.22;99951.59;1664523;85;21097;-77
2022/03/07 09:39:15;;;;;;;4.53;2.83;;;;;;;1.30;50.88;99962.92;1664117;85;21037;-77
2022/03/07 09:41:42;;;;;;;6.92;4.25;;;;;;;1.29;50.67;99959.94;1663854;85;20987;-76
2022/03/07 09:44:09;;;;;;;7.17;4.55;;;;;;;1.25;50.30;99958.84;1663751;85;22021;-78
2022/03/07 09:46:37;;;;;;;4.53;2.95;;;;;;;1.26;50.81;99954.89;1713653;83;21005;-78
2022/03/07 09:49:04;;;;;;;4.62;3.17;;;;;;;1.30;50.19;99953.81;1713533;83;21624;-78
2022/03/07 09:51:33;;;;;;;7.45;4.90;;;;;;;1.33;50.32;99950.22;1678593;84;21033;-78
2022/03/07 09:54:00;;;;;;;6.30;4.15;;;;;;;1.35;50.77;99957.05;1678549;85;20964;-78
2022/03/07 09:56:27;;;;;;;6.25;4.10;;;;;;;1.41;50.08;99958.04;1678377;85;21987;-78
2022/03/07 09:58:54;;;;;;;7.70;5.00;;;;;;;1.43;49.84;99952.76;1678670;85;21024;-76
2022/03/07 10:01:21;;;;;;;5.50;3.90;;;;;;;1.43;49.78;99954.90;1678509;85;21421;-78
2022/03/07 10:03:50;;;;;;;5.95;4.62;;;;;;;1.45;50.01;99953.55;1713780;83;20950;-76
2022/03/07 10:06:18;;;;;;;5.03;3.72;;;;;;;1.45;49.62;99949.64;1680710;85;20966;-76
2022/03/07 10:08:58;;;;;;;4.15;2.75;;;;;;;1.44;49.83;99945.33;1715159;83;21920;-76
2022/03/07 10:11:30;;;;;;;5.12;3.10;;;;;;;1.46;50.01;99951.79;1714716;82;20997;-76
2022/03/07 10:14:00;;;;;;;6.17;4.03;;;;;;;1.37;50.11;99943.50;1713334;82;21006;-79
2022/03/07 10:16:45;;;;;;;7.13;3.17;;;;;;;1.32;50.38;99942.88;1713429;82;21009;-77
2022/03/07 10:19:14;;;;;;;5.65;3.65;;;;;;;1.31;50.65;99941.19;1713164;83;21489;-77
2022/03/07 10:21:50;;;;;;;5.50;3.20;;;;;;;1.35;50.96;99936.67;1713169;83;21864;-78
2022/03/07 10:24:17;;;;;;;4.37;3.30;;;;;;;1.39;50.99;99930.42;1713141;82;20998;-77
2022/03/07 10:26:44;;;;;;;4.45;3.10;;;;;;;1.36;50.82;99935.78;1678533;85;21084;-76
2022/03/07 10:29:12;;;;;;;5.60;2.90;;;;;;;1.33;51.02;99932.00;1677924;85;20985;-77
2022/03/07 10:31:44;;;;;;;6.33;3.52;;;;;;;1.33;50.74;99924.20;1678395;85;20993;-78
2022/03/07 10:34:09;;;;;;;7.75;3.52;;;;;;;1.33;50.84;99920.30;1703266;83;21972;-78
2022/03/07 10:36:41;;;;;;;4.97;3.27;;;;;;;1.33;51.04;99918.99;1678241;85;20993;-78
2022/03/07 10:39:13;;;;;;;3.95;3.00;;;;;;;1.34;51.17;99921.52;1678246;85;20961;-79
2022/03/07 10:41:43;;;;;;;4.53;2.87;;;;;;;1.40;51.22;99913.42;1679004;85;20973;-78
2022/03/07 10:44:30;;;;;;;6.15;3.40;;;;;;;1.48;50.83;99916.11;1678865;85;21008;-78
2022/03/07 10:47:14;;;;;;;5.15;3.17;;;;;;;1.42;50.95;99912.05;1713554;83;21929;-76
2022/03/07 10:49:55;;;;;;;5.10;3.10;;;;;;;1.36;51.16;99905.86;1713299;82;21389;-77
2022/03/07 10:52:23;;;;;;;5.15;3.45;;;;;;;1.28;51.26;99902.33;1713383;83;20970;-77
2022/03/07 10:54:51;;;;;;;5.03;3.40;;;;;;;1.26;51.70;99905.92;1713242;83;20974;-76
2022/03/07 10:57:18;;;;;;;4.25;3.17;;;;;;;1.32;52.31;99909.05;1713632;82;21001;-77
2022/03/07 10:59:46;;;;;;;6.12;3.65;;;;;;;1.42;52.78;99906.84;1678709;85;21976;-77
2022/03/07 11:02:16;;;;;;;5.30;3.47;;;;;;;1.44;52.33;99902.39;1678951;85;21079;-77
2022/03/07 11:04:50;;;;;;;5.90;3.55;;;;;;;1.33;52.53;99901.63;1713264;83;20958;-77
2022/03/07 11:07:18;;;;;;;5.72;3.60;;;;;;;1.25;53.29;99896.41;1678736;85;21001;-77
2022/03/07 11:09:49;;;;;;;5.35;4.00;;;;;;;1.21;53.47;99894.42;1678975;85;21088;-77
2022/03/07 11:12:15;;;;;;;5.55;3.70;;;;;;;1.18;53.96;99889.84;1713189;83;22152;-77
2022/03/07 11:14:43;;;;;;;5.78;3.75;;;;;;;1.20;54.23;99886.70;1713232;82;21065;-77
2022/03/07 11:17:17;;;;;;;5.20;3.47;;;;;;;1.25;54.22;99880.34;1712229;83;20951;-78
2022/03/07 11:19:51;;;;;;;5.15;3.80;;;;;;;1.33;54.35;99886.47;1678798;85;21015;-76
2022/03/07 11:22:17;;;;;;;5.35;3.42;;;;;;;1.39;54.28;99870.57;1713615;83;21017;-77
2022/03/07 11:24:47;;;;;;;5.60;3.58;;;;;;;1.48;54.51;99871.41;1713222;83;22184;-77
2022/03/07 11:27:17;;;;;;;4.70;3.40;;;;;;;1.56;54.72;99867.97;1713326;82;20941;-78
2022/03/07 11:29:45;;;;;;;4.90;3.65;;;;;;;1.65;54.66;99871.41;1658145;85;21059;-78
2022/03/07 11:32:14;;;;;;;5.42;3.70;;;;;;;1.71;54.49;99864.57;1678788;85;20977;-78
2022/03/07 11:34:54;;;;;;;4.70;3.67;;;;;;;1.68;54.48;99863.44;1678986;85;20965;-78